createdAt,value
2022-10-08T00:01:22.124Z,10.48
2022-10-08T00:03:52.592Z,10.34
2022-10-08T00:06:21.705Z,10.34
2022-10-08T00:08:50.414Z,10.50
2022-10-08T00:11:20.590Z,10.56
2022-10-08T00:13:48.594Z,10.50
2022-10-08T00:16:18.190Z,10.53
2022-10-08T00:18:47.077Z,10.60
2022-10-08T00:21:16.668Z,10.64
2022-10-08T00:23:46.597Z,10.45
2022-10-08T00:26:15.426Z,10.52
2022-10-08T00:28:46.471Z,10.71
2022-10-08T00:31:15.808Z,10.70
2022-10-08T00:33:43.447Z,10.70
2022-10-08T00:36:12.645Z,10.61
2022-10-08T00:38:40.671Z,10.52
2022-10-08T00:41:18.494Z,10.48
2022-10-08T00:43:49.072Z,10.64
2022-10-08T00:46:23.198Z,10.52
2022-10-08T00:48:51.734Z,10.42
2022-10-08T00:51:19.195Z,10.44
2022-10-08T00:53:47.066Z,10.41
2022-10-08T00:56:14.612Z,10.22
2022-10-08T00:58:42.787Z,10.30
2022-10-08T01:01:11.675Z,10.16
2022-10-08T01:03:39.125Z,10.16
2022-10-08T01:06:12.046Z,10.31
2022-10-08T01:08:45.430Z,10.24
2022-10-08T01:11:21.230Z,10.34
2022-10-08T01:13:53.962Z,10.21
2022-10-08T01:16:28.323Z,10.15
2022-10-08T01:18:59.083Z,10.24
2022-10-08T01:21:35.480Z,10.16
2022-10-08T01:24:20.650Z,10.13
2022-10-08T01:26:55.774Z,10.11
2022-10-08T01:29:29.449Z,10.10
2022-10-08T01:32:01.684Z,10.18
2022-10-08T01:34:33.401Z,9.94
2022-10-08T01:37:00.819Z,9.94
2022-10-08T01:39:32.570Z,9.86
2022-10-08T01:42:00.712Z,10.01
2022-10-08T01:44:33.178Z,10.04
2022-10-08T01:47:02.341Z,10.03
2022-10-08T01:49:34.102Z,10.03
2022-10-08T01:52:05.342Z,9.97
2022-10-08T01:54:34.263Z,10.12
2022-10-08T01:57:02.618Z,9.94
2022-10-08T01:59:34.193Z,9.98
2022-10-08T02:02:06.190Z,10.01
2022-10-08T02:04:37.444Z,10.01
2022-10-08T02:07:08.256Z,10.02
2022-10-08T02:09:38.304Z,10.15
2022-10-08T02:12:06.200Z,10.14
2022-10-08T02:14:36.281Z,9.97
2022-10-08T02:17:11.233Z,10.07
2022-10-08T02:19:47.679Z,10.05
2022-10-08T02:22:17.381Z,10.23
2022-10-08T02:24:48.792Z,10.10
2022-10-08T02:27:16.224Z,10.29
2022-10-08T02:29:47.000Z,10.15
2022-10-08T02:32:19.934Z,10.14
2022-10-08T02:34:49.299Z,9.96
2022-10-08T02:37:20.164Z,9.96
2022-10-08T02:39:50.213Z,10.04
2022-10-08T02:42:19.764Z,10.07
2022-10-08T02:44:50.552Z,10.23
2022-10-08T02:47:19.586Z,10.39
2022-10-08T02:49:51.729Z,10.47
2022-10-08T02:52:20.041Z,10.64
2022-10-08T02:54:50.139Z,10.79
2022-10-08T02:57:19.771Z,10.77
2022-10-08T02:59:48.993Z,10.82
2022-10-08T03:02:20.424Z,10.89
2022-10-08T03:04:52.047Z,10.95
2022-10-08T03:07:22.894Z,10.99
2022-10-08T03:09:51.709Z,10.75
2022-10-08T03:12:19.256Z,10.95
2022-10-08T03:14:49.323Z,10.82
2022-10-08T03:17:20.067Z,11.03
2022-10-08T03:19:47.481Z,11.05
2022-10-08T03:22:14.935Z,11.19
2022-10-08T03:24:42.314Z,11.16
2022-10-08T03:27:09.673Z,11.05
2022-10-08T03:29:37.121Z,11.06
2022-10-08T03:32:06.564Z,11.17
2022-10-08T03:34:33.935Z,11.16
2022-10-08T03:37:01.318Z,11.04
2022-10-08T03:39:28.742Z,11.04
2022-10-08T03:41:56.133Z,11.27
2022-10-08T03:44:23.606Z,11.30
2022-10-08T03:46:50.957Z,11.29
2022-10-08T03:49:19.752Z,11.32
2022-10-08T03:51:47.107Z,11.28
2022-10-08T03:54:14.515Z,11.21
2022-10-08T03:56:42.050Z,11.21
2022-10-08T03:59:09.469Z,11.31
2022-10-08T04:01:36.982Z,11.40
2022-10-08T04:04:04.396Z,11.56
2022-10-08T04:06:33.172Z,11.43
2022-10-08T04:09:01.580Z,11.40
2022-10-08T04:11:29.854Z,11.17
2022-10-08T04:13:57.244Z,11.43
2022-10-08T04:16:24.644Z,11.29
2022-10-08T04:18:52.034Z,11.41
2022-10-08T04:21:19.858Z,11.42
2022-10-08T04:23:50.171Z,11.49
2022-10-08T04:26:18.291Z,11.32
2022-10-08T04:28:47.166Z,11.22
2022-10-08T04:31:17.617Z,11.22
2022-10-08T04:33:46.112Z,11.45
2022-10-08T04:36:14.928Z,11.40
2022-10-08T04:38:43.233Z,11.66
2022-10-08T04:41:13.870Z,11.75
2022-10-08T04:43:42.166Z,11.88
2022-10-08T04:46:10.840Z,11.77
2022-10-08T04:48:40.678Z,11.65
2022-10-08T04:51:10.774Z,11.83
2022-10-08T04:53:38.685Z,11.77
2022-10-08T04:56:12.707Z,11.85
2022-10-08T04:58:40.428Z,11.79
2022-10-08T05:01:09.117Z,11.83
2022-10-08T05:03:37.626Z,11.79
2022-10-08T05:06:05.680Z,11.76
2022-10-08T05:08:33.553Z,11.65
2022-10-08T05:11:01.073Z,11.46
2022-10-08T05:13:29.779Z,11.08
2022-10-08T05:15:57.192Z,10.87
2022-10-08T05:18:24.795Z,10.97
2022-10-08T05:20:52.166Z,11.01
2022-10-08T05:23:19.566Z,10.84
2022-10-08T05:25:46.961Z,10.94
2022-10-08T05:28:14.295Z,10.66
2022-10-08T05:30:43.005Z,10.81
2022-10-08T05:33:10.341Z,10.65
2022-10-08T05:35:38.262Z,10.73
2022-10-08T05:38:05.838Z,10.80
2022-10-08T05:40:33.808Z,10.72
2022-10-08T05:43:01.254Z,10.84
2022-10-08T05:45:28.610Z,11.10
2022-10-08T05:47:57.283Z,10.96
2022-10-08T05:50:24.666Z,11.08
2022-10-08T05:52:52.081Z,11.02
2022-10-08T05:55:21.492Z,10.89
2022-10-08T05:57:48.858Z,10.93
2022-10-08T06:00:16.637Z,11.09
2022-10-08T06:02:44.191Z,11.22
2022-10-08T06:05:13.085Z,11.26
2022-10-08T06:07:40.451Z,11.27
2022-10-08T06:10:08.736Z,11.28
2022-10-08T06:12:36.097Z,11.15
2022-10-08T06:15:03.500Z,11.37
2022-10-08T06:17:30.870Z,11.32
2022-10-08T06:19:58.210Z,11.06
2022-10-08T06:22:29.274Z,11.17
2022-10-08T06:24:56.665Z,11.36
2022-10-08T06:27:24.001Z,11.19
2022-10-08T06:29:51.400Z,11.26
2022-10-08T06:32:21.722Z,11.30
2022-10-08T06:34:49.102Z,11.15
2022-10-08T06:37:16.450Z,11.10
2022-10-08T06:39:48.418Z,11.16
2022-10-08T06:42:16.117Z,11.21
2022-10-08T06:44:44.673Z,11.37
2022-10-08T06:47:12.086Z,11.51
2022-10-08T06:49:40.857Z,11.57
2022-10-08T06:52:08.209Z,11.62
2022-10-08T06:54:35.589Z,11.44
2022-10-08T06:57:04.299Z,11.70
2022-10-08T06:59:31.646Z,11.91
2022-10-08T07:01:59.092Z,12.00
2022-10-08T07:04:26.509Z,11.78
2022-10-08T07:06:53.835Z,11.93
2022-10-08T07:09:21.202Z,11.86
2022-10-08T07:11:48.535Z,11.61
2022-10-08T07:14:17.330Z,11.75
2022-10-08T07:16:44.748Z,11.65
2022-10-08T07:19:12.212Z,11.72
2022-10-08T07:21:40.430Z,11.69
2022-10-08T07:24:07.888Z,11.72
2022-10-08T07:26:35.781Z,11.79
2022-10-08T07:29:05.785Z,12.06
2022-10-08T07:31:38.306Z,12.05
2022-10-08T07:34:07.564Z,12.07
2022-10-08T07:36:35.244Z,12.09
2022-10-08T07:39:04.162Z,12.02
2022-10-08T07:41:31.701Z,12.20
2022-10-08T07:44:01.367Z,12.28
2022-10-08T07:46:29.966Z,12.46
2022-10-08T07:49:01.365Z,12.14
2022-10-08T07:51:29.759Z,12.12
2022-10-08T07:54:02.126Z,12.28
2022-10-08T07:56:30.194Z,12.61
2022-10-08T07:58:59.429Z,12.89
2022-10-08T08:01:29.324Z,12.90
2022-10-08T08:03:59.304Z,13.25
2022-10-08T08:06:27.011Z,13.82
2022-10-08T08:08:54.719Z,14.18
2022-10-08T08:11:24.357Z,14.21
2022-10-08T08:13:52.066Z,14.50
2022-10-08T08:16:20.857Z,14.62
2022-10-08T08:18:49.364Z,14.48
2022-10-08T08:21:19.465Z,14.33
2022-10-08T08:23:48.276Z,14.22
2022-10-08T08:26:17.377Z,14.22
2022-10-08T08:28:44.981Z,14.12
2022-10-08T08:31:14.489Z,14.02
2022-10-08T08:33:42.867Z,13.56
2022-10-08T08:36:10.792Z,13.85
2022-10-08T08:38:39.895Z,14.04
2022-10-08T08:41:13.536Z,14.30
2022-10-08T08:43:42.268Z,14.34
2022-10-08T08:46:10.752Z,14.17
2022-10-08T08:48:39.447Z,14.15
2022-10-08T08:51:06.919Z,14.27
2022-10-08T08:53:34.645Z,14.29
2022-10-08T08:56:06.205Z,13.51
2022-10-08T08:58:39.199Z,13.54
2022-10-08T09:01:15.522Z,13.81
2022-10-08T09:03:45.280Z,13.95
2022-10-08T09:06:14.705Z,14.02
2022-10-08T09:08:46.057Z,14.26
2022-10-08T09:11:16.482Z,14.43
2022-10-08T09:13:47.545Z,14.64
2022-10-08T09:16:15.739Z,14.52
2022-10-08T09:18:44.056Z,14.85
2022-10-08T09:21:11.402Z,14.78
2022-10-08T09:23:38.805Z,14.80
2022-10-08T09:26:14.146Z,14.72
2022-10-08T09:28:45.773Z,15.08
2022-10-08T09:31:18.931Z,15.59
2022-10-08T09:33:46.894Z,15.74
2022-10-08T09:36:14.242Z,15.63
2022-10-08T09:38:41.834Z,15.61
2022-10-08T09:41:18.209Z,15.46
2022-10-08T09:44:07.826Z,15.59
2022-10-08T09:46:35.206Z,15.81
2022-10-08T09:49:21.573Z,15.90
2022-10-08T09:51:50.009Z,15.43
2022-10-08T09:54:25.095Z,15.56
2022-10-08T09:56:53.457Z,15.61
2022-10-08T09:59:23.866Z,15.55
2022-10-08T10:01:54.159Z,15.37
2022-10-08T10:04:31.465Z,15.23
2022-10-08T10:06:59.001Z,15.33
2022-10-08T10:09:31.978Z,15.71
2022-10-08T10:12:02.602Z,15.55
2022-10-08T10:14:37.773Z,16.32
2022-10-08T10:17:10.809Z,16.56
2022-10-08T10:19:42.904Z,16.87
2022-10-08T10:22:14.309Z,17.09
2022-10-08T10:24:49.166Z,17.14
2022-10-08T10:27:21.581Z,17.38
2022-10-08T10:29:55.756Z,17.78
2022-10-08T10:32:31.694Z,17.61
2022-10-08T10:35:05.401Z,17.69
2022-10-08T10:37:38.178Z,17.75
2022-10-08T10:40:22.258Z,17.14
2022-10-08T10:42:55.889Z,16.37
2022-10-08T10:45:27.183Z,16.09
2022-10-08T10:47:54.934Z,15.92
2022-10-08T10:50:28.002Z,16.08
2022-10-08T10:53:02.487Z,16.14
2022-10-08T10:55:32.961Z,16.39
2022-10-08T10:58:19.686Z,16.04
2022-10-08T11:00:57.083Z,16.10
2022-10-08T11:03:30.536Z,16.76
2022-10-08T11:06:10.547Z,17.09
2022-10-08T11:08:41.380Z,17.09
2022-10-08T11:11:20.305Z,17.37
2022-10-08T11:13:56.345Z,17.67
2022-10-08T11:16:35.927Z,17.92
2022-10-08T11:19:05.731Z,18.09
2022-10-08T11:21:44.478Z,17.82
2022-10-08T11:24:28.191Z,17.73
2022-10-08T11:27:01.035Z,17.42
2022-10-08T11:29:34.605Z,17.61
2022-10-08T11:32:03.978Z,17.67
2022-10-08T11:34:33.231Z,17.59
2022-10-08T11:37:09.141Z,17.03
2022-10-08T11:39:44.039Z,17.08
2022-10-08T11:42:15.949Z,17.47
2022-10-08T11:44:43.596Z,17.89
2022-10-08T11:47:37.181Z,18.04
2022-10-08T11:50:06.717Z,18.45
2022-10-08T11:52:35.226Z,18.54
2022-10-08T11:55:03.001Z,18.15
2022-10-08T11:57:55.884Z,18.08
2022-10-08T12:00:31.483Z,18.05
2022-10-08T12:03:01.393Z,17.87
2022-10-08T12:05:44.503Z,18.06
2022-10-08T12:08:51.567Z,17.67
2022-10-08T12:11:52.615Z,16.99
2022-10-08T12:14:33.948Z,16.37
2022-10-08T12:17:12.445Z,15.89
2022-10-08T12:20:05.104Z,15.50
2022-10-08T12:22:44.223Z,15.88
2022-10-08T12:25:33.586Z,16.28
2022-10-08T12:28:46.903Z,16.45
2022-10-08T12:31:20.530Z,16.61
2022-10-08T12:34:03.024Z,16.80
2022-10-08T12:36:45.543Z,17.10
2022-10-08T12:39:19.025Z,17.00
2022-10-08T12:41:54.985Z,17.25
2022-10-08T12:44:35.234Z,16.92
2022-10-08T12:47:10.405Z,16.77
2022-10-08T12:49:41.432Z,16.68
2022-10-08T12:52:11.138Z,16.57
2022-10-08T12:54:39.960Z,16.38
2022-10-08T12:57:11.040Z,16.70
2022-10-08T12:59:40.645Z,16.66
2022-10-08T13:02:26.242Z,16.88
2022-10-08T13:04:53.638Z,16.73
2022-10-08T13:07:26.214Z,16.86
2022-10-08T13:09:56.081Z,17.04
2022-10-08T13:12:24.878Z,17.21
2022-10-08T13:14:59.918Z,17.02
2022-10-08T13:17:35.025Z,17.25
2022-10-08T13:20:12.041Z,17.65
2022-10-08T13:22:39.453Z,17.78
2022-10-08T13:25:22.921Z,17.94
2022-10-08T13:28:10.208Z,18.29
2022-10-08T13:30:37.733Z,18.19
2022-10-08T13:33:06.427Z,18.35
2022-10-08T13:35:34.048Z,18.76
2022-10-08T13:38:01.910Z,18.40
2022-10-08T13:40:30.068Z,18.78
2022-10-08T13:42:59.164Z,18.45
2022-10-08T13:45:36.491Z,18.34
2022-10-08T13:48:04.066Z,17.88
2022-10-08T13:50:31.520Z,17.57
2022-10-08T13:53:01.683Z,17.04
2022-10-08T13:55:31.839Z,16.59
2022-10-08T13:58:02.001Z,16.34
2022-10-08T14:00:32.187Z,16.17
2022-10-08T14:03:00.414Z,15.78
2022-10-08T14:05:28.576Z,15.73
2022-10-08T14:07:59.089Z,15.98
2022-10-08T14:10:27.143Z,16.24
2022-10-08T14:12:54.782Z,16.99
2022-10-08T14:15:22.263Z,17.33
2022-10-08T14:17:53.309Z,17.86
2022-10-08T14:20:20.791Z,17.97
2022-10-08T14:22:48.189Z,18.09
2022-10-08T14:25:18.284Z,17.06
2022-10-08T14:27:46.453Z,17.01
2022-10-08T14:30:15.158Z,16.37
2022-10-08T14:32:42.870Z,15.80
2022-10-08T14:35:12.679Z,15.54
2022-10-08T14:37:42.479Z,15.21
2022-10-08T14:40:12.946Z,15.14
2022-10-08T14:42:40.360Z,14.91
2022-10-08T14:45:08.573Z,14.54
2022-10-08T14:47:36.009Z,14.54
2022-10-08T14:50:03.513Z,14.56
2022-10-08T14:52:32.939Z,14.63
2022-10-08T14:55:00.357Z,14.65
2022-10-08T14:57:27.814Z,14.31
2022-10-08T14:59:55.340Z,14.20
2022-10-08T15:02:24.839Z,14.20
2022-10-08T15:04:53.694Z,14.13
2022-10-08T15:07:21.443Z,14.22
2022-10-08T15:09:50.176Z,14.20
2022-10-08T15:12:17.703Z,14.20
2022-10-08T15:14:45.123Z,14.24
2022-10-08T15:17:12.579Z,14.23
2022-10-08T15:19:40.039Z,13.96
2022-10-08T15:22:07.498Z,13.76
2022-10-08T15:24:34.903Z,14.08
2022-10-08T15:27:03.638Z,14.09
2022-10-08T15:29:31.073Z,13.86
2022-10-08T15:31:58.640Z,13.67
2022-10-08T15:34:26.200Z,13.84
2022-10-08T15:36:54.766Z,13.90
2022-10-08T15:39:25.067Z,13.95
2022-10-08T15:41:53.352Z,13.96
2022-10-08T15:44:23.903Z,13.89
2022-10-08T15:46:59.344Z,13.94
2022-10-08T15:49:30.910Z,13.67
2022-10-08T15:51:58.366Z,13.74
2022-10-08T15:54:25.874Z,13.78
2022-10-08T15:56:53.342Z,13.82
2022-10-08T15:59:22.184Z,13.84
2022-10-08T16:01:49.681Z,13.62
2022-10-08T16:04:17.136Z,13.62
2022-10-08T16:06:45.284Z,13.70
2022-10-08T16:09:13.389Z,13.37
2022-10-08T16:11:40.824Z,13.28
2022-10-08T16:14:10.883Z,13.36
2022-10-08T16:16:40.287Z,13.30
2022-10-08T16:19:10.159Z,13.19
2022-10-08T16:21:38.490Z,13.05
2022-10-08T16:24:06.516Z,13.11
2022-10-08T16:26:35.462Z,12.91
2022-10-08T16:29:05.198Z,12.96
2022-10-08T16:31:34.697Z,12.86
2022-10-08T16:34:05.125Z,12.99
2022-10-08T16:36:34.813Z,13.13
2022-10-08T16:39:03.550Z,13.20
2022-10-08T16:41:31.938Z,13.22
2022-10-08T16:44:00.861Z,13.28
2022-10-08T16:46:30.438Z,13.18
2022-10-08T16:48:59.270Z,13.32
2022-10-08T16:51:29.699Z,13.16
2022-10-08T16:53:59.148Z,13.20
2022-10-08T16:56:31.040Z,13.09
2022-10-08T16:58:59.889Z,12.84
2022-10-08T17:01:27.911Z,12.43
2022-10-08T17:03:55.946Z,11.92
2022-10-08T17:06:24.854Z,11.87
2022-10-08T17:08:53.714Z,11.70
2022-10-08T17:11:22.106Z,11.58
2022-10-08T17:13:51.218Z,11.10
2022-10-08T17:16:20.354Z,11.18
2022-10-08T17:18:48.202Z,10.54
2022-10-08T17:21:16.001Z,10.76
2022-10-08T17:23:43.498Z,10.66
2022-10-08T17:26:13.840Z,10.65
2022-10-08T17:28:43.266Z,10.51
2022-10-08T17:31:14.355Z,10.45
2022-10-08T17:33:42.198Z,10.52
2022-10-08T17:36:11.727Z,10.32
2022-10-08T17:38:40.492Z,10.40
2022-10-08T17:41:14.037Z,10.26
2022-10-08T17:43:41.690Z,10.18
2022-10-08T17:46:11.249Z,10.02
2022-10-08T17:48:39.230Z,10.24
2022-10-08T17:51:11.938Z,10.05
2022-10-08T17:53:39.661Z,10.01
2022-10-08T17:56:08.644Z,10.18
2022-10-08T17:58:37.470Z,10.21
2022-10-08T18:01:08.708Z,9.99
2022-10-08T18:03:36.978Z,10.12
2022-10-08T18:06:04.754Z,10.16
2022-10-08T18:08:32.704Z,10.04
2022-10-08T18:11:02.673Z,10.11
2022-10-08T18:13:30.170Z,10.23
2022-10-08T18:16:03.285Z,10.25
2022-10-08T18:18:30.802Z,10.37
2022-10-08T18:20:59.448Z,10.19
2022-10-08T18:23:28.799Z,10.10
2022-10-08T18:25:56.586Z,10.23
2022-10-08T18:28:24.204Z,10.25
2022-10-08T18:30:51.765Z,10.43
2022-10-08T18:33:24.516Z,10.43
2022-10-08T18:35:52.210Z,10.38
2022-10-08T18:38:19.629Z,10.35
2022-10-08T18:40:47.122Z,10.28
2022-10-08T18:43:14.538Z,10.20
2022-10-08T18:45:41.937Z,10.01
2022-10-08T18:48:16.039Z,9.95
2022-10-08T18:50:44.830Z,9.71
2022-10-08T18:53:12.263Z,9.90
2022-10-08T18:55:39.843Z,9.90
2022-10-08T18:58:07.301Z,9.87
2022-10-08T19:00:37.887Z,9.74
2022-10-08T19:03:05.400Z,9.77
2022-10-08T19:05:32.970Z,9.78
2022-10-08T19:08:01.774Z,9.70
2022-10-08T19:10:30.486Z,9.73
2022-10-08T19:12:58.425Z,9.65
2022-10-08T19:15:26.315Z,9.68
2022-10-08T19:17:53.690Z,9.66
2022-10-08T19:20:21.418Z,9.60
2022-10-08T19:22:49.079Z,9.51
2022-10-08T19:25:18.615Z,9.28
2022-10-08T19:27:47.670Z,9.24
2022-10-08T19:30:16.223Z,9.32
2022-10-08T19:32:43.834Z,9.31
2022-10-08T19:35:11.383Z,9.25
2022-10-08T19:37:38.983Z,9.24
2022-10-08T19:40:07.063Z,9.25
2022-10-08T19:42:35.786Z,9.15
2022-10-08T19:45:03.295Z,9.25
2022-10-08T19:47:30.730Z,9.27
2022-10-08T19:49:58.103Z,9.18
2022-10-08T19:52:25.795Z,9.28
2022-10-08T19:54:53.215Z,9.06
2022-10-08T19:57:20.762Z,9.18
2022-10-08T19:59:49.550Z,9.13
2022-10-08T20:02:17.044Z,9.19
2022-10-08T20:04:44.837Z,9.15
2022-10-08T20:07:12.226Z,9.02
2022-10-08T20:09:39.853Z,9.08
2022-10-08T20:12:07.286Z,9.04
2022-10-08T20:14:34.892Z,9.07
2022-10-08T20:17:03.647Z,9.04
2022-10-08T20:19:31.069Z,8.88
2022-10-08T20:21:58.759Z,8.91
2022-10-08T20:24:26.268Z,8.69
2022-10-08T20:26:53.815Z,8.84
2022-10-08T20:29:25.161Z,8.79
2022-10-08T20:31:55.818Z,8.74
2022-10-08T20:34:26.866Z,8.67
2022-10-08T20:36:54.471Z,8.75
2022-10-08T20:39:23.026Z,8.74
2022-10-08T20:41:51.539Z,8.64
2022-10-08T20:44:20.725Z,8.50
2022-10-08T20:46:49.678Z,8.60
2022-10-08T20:49:17.317Z,8.63
2022-10-08T20:51:46.161Z,8.64
2022-10-08T20:54:16.325Z,8.62
2022-10-08T20:56:44.215Z,8.63
2022-10-08T20:59:15.010Z,8.71
2022-10-08T21:01:42.885Z,8.61
2022-10-08T21:04:10.375Z,8.33
2022-10-08T21:06:39.476Z,8.53
2022-10-08T21:09:08.373Z,8.56
2022-10-08T21:11:36.556Z,8.70
2022-10-08T21:14:04.477Z,8.51
2022-10-08T21:16:34.555Z,8.36
2022-10-08T21:19:03.191Z,8.37
2022-10-08T21:21:31.715Z,8.56
2022-10-08T21:23:59.736Z,8.55
2022-10-08T21:26:29.684Z,8.56
2022-10-08T21:28:59.630Z,8.51
2022-10-08T21:31:30.282Z,8.51
2022-10-08T21:34:00.682Z,8.31
2022-10-08T21:36:29.949Z,8.29
2022-10-08T21:38:58.999Z,8.23
2022-10-08T21:41:29.629Z,8.00
2022-10-08T21:43:57.698Z,8.17
2022-10-08T21:46:26.835Z,8.19
2022-10-08T21:48:54.940Z,8.14
2022-10-08T21:51:22.440Z,8.00
2022-10-08T21:53:52.258Z,8.02
2022-10-08T21:56:22.249Z,8.09
2022-10-08T21:58:52.689Z,8.05
2022-10-08T22:01:22.652Z,8.21
2022-10-08T22:03:50.397Z,8.22
2022-10-08T22:06:17.825Z,8.23
2022-10-08T22:08:45.254Z,8.28
2022-10-08T22:11:12.633Z,8.21
2022-10-08T22:13:40.134Z,8.24
2022-10-08T22:16:08.906Z,8.28
2022-10-08T22:18:36.689Z,8.29
2022-10-08T22:21:05.777Z,8.23
2022-10-08T22:23:36.001Z,8.11
2022-10-08T22:26:06.436Z,8.11
2022-10-08T22:28:34.324Z,8.15
2022-10-08T22:31:02.106Z,8.01
2022-10-08T22:33:31.699Z,7.98
2022-10-08T22:36:02.636Z,8.01
2022-10-08T22:38:30.039Z,7.96
2022-10-08T22:41:01.988Z,8.04
2022-10-08T22:43:29.350Z,8.06
2022-10-08T22:45:56.831Z,8.07
2022-10-08T22:48:24.646Z,7.90
2022-10-08T22:50:53.560Z,8.03
2022-10-08T22:53:20.982Z,8.21
2022-10-08T22:55:48.429Z,8.13
2022-10-08T22:58:15.855Z,8.35
2022-10-08T23:00:43.269Z,8.46
2022-10-08T23:03:10.765Z,8.49
2022-10-08T23:05:38.176Z,8.57
2022-10-08T23:08:07.125Z,8.56
2022-10-08T23:10:35.360Z,8.28
2022-10-08T23:13:02.821Z,8.40
2022-10-08T23:15:30.173Z,8.55
2022-10-08T23:17:57.564Z,8.58
2022-10-08T23:20:24.925Z,8.59
2022-10-08T23:22:53.157Z,8.46
2022-10-08T23:25:21.841Z,8.55
2022-10-08T23:27:49.224Z,8.65
2022-10-08T23:30:38.399Z,8.82
2022-10-08T23:33:04.185Z,8.67
2022-10-08T23:35:31.545Z,8.83
2022-10-08T23:37:58.924Z,8.91
2022-10-08T23:43:16.557Z,8.71
2022-10-08T23:45:44.195Z,8.64
2022-10-08T23:48:11.580Z,8.61
2022-10-08T23:50:39.613Z,8.56
2022-10-08T23:53:07.122Z,8.36
2022-10-08T23:55:35.727Z,8.22
2022-10-08T23:58:03.235Z,8.20
